Lowell Highlands, MA

10 Minute Time Series

09-16-2019 06:40 AM

TimeTempHumidityDewpointBarometerWindSpeedWindGustWind DirRain
12:10 AM63.6°F76%55.9°F30.014 inHg0 mph1 mph N/A (N/A)0.00 in
12:20 AM63.2°F77%55.9°F30.014 inHg0 mph3 mph N/A (N/A)0.00 in
12:30 AM63.0°F78%56.0°F30.011 inHg1 mph3 mph315° (NW)0.00 in
12:40 AM62.8°F79%56.2°F30.014 inHg0 mph2 mph N/A (N/A)0.00 in
12:50 AM62.5°F79%55.9°F30.013 inHg1 mph2 mph338° (NNW)0.00 in
01:00 AM62.2°F80%56.0°F30.015 inHg0 mph2 mph N/A (N/A)0.00 in
01:10 AM61.8°F81%55.9°F30.010 inHg1 mph3 mph338° (NNW)0.00 in
01:20 AM61.5°F82%56.0°F30.010 inHg1 mph4 mph338° (NNW)0.00 in
01:30 AM61.4°F82%55.9°F30.012 inHg0 mph1 mph N/A (N/A)0.00 in
01:40 AM61.2°F82%55.7°F30.011 inHg0 mph1 mph N/A (N/A)0.00 in
01:50 AM60.8°F83%55.6°F30.008 inHg0 mph0 mph N/A (N/A)0.00 in
02:00 AM60.2°F84%55.3°F30.009 inHg1 mph3 mph0° (N)0.00 in
02:10 AM59.9°F85%55.4°F30.010 inHg0 mph2 mph N/A (N/A)0.00 in
02:20 AM59.6°F85%55.1°F30.011 inHg0 mph0 mph N/A (N/A)0.00 in
02:30 AM59.3°F85%54.8°F30.008 inHg0 mph0 mph N/A (N/A)0.00 in
02:40 AM59.1°F86%54.9°F30.004 inHg0 mph0 mph N/A (N/A)0.00 in
02:50 AM58.7°F86%54.5°F30.004 inHg0 mph1 mph N/A (N/A)0.00 in
03:00 AM58.5°F87%54.6°F30.008 inHg0 mph0 mph N/A (N/A)0.00 in
03:10 AM58.2°F87%54.3°F30.010 inHg0 mph2 mph N/A (N/A)0.00 in
03:20 AM57.9°F88%54.4°F30.016 inHg0 mph0 mph N/A (N/A)0.00 in
03:30 AM57.7°F89%54.5°F30.017 inHg0 mph0 mph N/A (N/A)0.00 in
03:40 AM57.6°F89%54.4°F30.023 inHg0 mph0 mph N/A (N/A)0.00 in
03:50 AM57.4°F89%54.2°F30.026 inHg0 mph0 mph N/A (N/A)0.00 in
04:00 AM57.4°F90%54.5°F30.026 inHg0 mph0 mph N/A (N/A)0.00 in
04:10 AM57.3°F90%54.4°F30.032 inHg0 mph0 mph N/A (N/A)0.00 in
04:20 AM57.3°F90%54.4°F30.034 inHg0 mph0 mph N/A (N/A)0.00 in
04:30 AM57.3°F90%54.4°F30.031 inHg0 mph1 mph N/A (N/A)0.00 in
04:40 AM57.4°F90%54.5°F30.024 inHg0 mph1 mph N/A (N/A)0.00 in
04:50 AM57.4°F90%54.5°F30.029 inHg1 mph3 mph0° (N)0.00 in
05:00 AM57.5°F89%54.3°F30.030 inHg1 mph3 mph22° (NNE)0.00 in
05:10 AM57.7°F88%54.2°F30.034 inHg1 mph3 mph0° (N)0.00 in
05:20 AM57.9°F86%53.7°F30.036 inHg1 mph3 mph0° (N)0.00 in
05:30 AM58.0°F84%53.2°F30.038 inHg2 mph3 mph0° (N)0.00 in
05:40 AM58.2°F83%53.1°F30.036 inHg2 mph4 mph0° (N)0.00 in
05:50 AM58.4°F81%52.6°F30.038 inHg2 mph5 mph0° (N)0.00 in
06:00 AM58.4°F81%52.6°F30.041 inHg1 mph2 mph0° (N)0.00 in
06:10 AM58.3°F81%52.5°F30.047 inHg1 mph2 mph0° (N)0.00 in
06:20 AM58.1°F82%52.6°F30.049 inHg0 mph2 mph N/A (N/A)0.00 in
06:30 AM58.0°F83%52.9°F30.056 inHg1 mph3 mph0° (N)0.00 in
06:40 AM57.7°F85%53.2°F30.063 inHg1 mph4 mph315° (NW)0.00 in